Time;durP1;ratioP1;P1;durP2;ratioP2;P2;SDS_P1;SDS_P2;PMS_P1;PMS_P2;Temp;Humidity;BMP_temperature;BMP_pressure;BME280_temperature;BME280_humidity;BME280_pressure;Samples;Min_cycle;Max_cycle;Signal;HPM_P1;HPM_P2
2023/01/06 00:01:32;;;;;;;;;;;9.00;99.90;;;;;;5055457;28;20296;-72
2023/01/06 00:04:00;;;;;;;;;;;9.10;99.90;;;;;;5041065;28;19925;-71
2023/01/06 00:06:29;;;;;;;;;;;9.10;99.90;;;;;;5043055;28;20022;-71
2023/01/06 00:09:01;;;;;;;;;;;9.10;99.90;;;;;;5045182;28;20008;-75
2023/01/06 00:11:30;;;;;;;;;;;9.10;99.90;;;;;;5043265;28;19924;-71
2023/01/06 00:13:59;;;;;;;;;;;9.10;99.90;;;;;;5042111;28;19932;-72
2023/01/06 00:16:29;;;;;;;;;;;9.10;99.90;;;;;;5041774;28;19928;-71
2023/01/06 00:18:59;;;;;;;;;;;9.10;99.90;;;;;;5042338;28;19936;-75
2023/01/06 00:21:31;;;;;;;;;;;9.10;99.90;;;;;;5046679;28;19924;-70
2023/01/06 00:24:00;;;;;;;;;;;9.10;99.90;;;;;;5038016;28;20599;-73
2023/01/06 00:26:29;;;;;;;;;;;9.10;99.90;;;;;;5044039;28;19929;-75
2023/01/06 00:28:58;;;;;;;;;;;9.00;99.90;;;;;;5042981;28;19955;-72
2023/01/06 00:31:27;;;;;;;;;;;9.00;99.90;;;;;;5042621;28;20040;-72
2023/01/06 00:33:56;;;;;;;;;;;9.00;99.90;;;;;;5057248;28;19924;-71
2023/01/06 00:36:25;;;;;;;;;;;8.90;99.90;;;;;;5032191;28;19936;-72
2023/01/06 00:38:55;;;;;;;;;;;8.90;99.90;;;;;;5057703;28;19979;-73
2023/01/06 00:44:16;;;;;;;;;;;8.80;99.90;;;;;;5050632;28;20394;-72
2023/01/06 00:46:46;;;;;;;;;;;8.80;99.90;;;;;;5036297;28;19960;-72
2023/01/06 00:49:15;;;;;;;;;;;8.90;99.90;;;;;;5060128;28;19932;-72
2023/01/06 00:51:44;;;;;;;;;;;8.80;99.90;;;;;;5059919;28;19924;-72
2023/01/06 00:54:13;;;;;;;;;;;8.90;99.90;;;;;;5038764;28;19960;-73
2023/01/06 00:56:44;;;;;;;;;;;8.90;99.90;;;;;;5059415;28;20393;-72
2023/01/06 00:59:17;;;;;;;;;;;8.80;99.90;;;;;;5053534;28;19929;-73
2023/01/06 01:01:47;;;;;;;;;;;8.80;99.90;;;;;;5052241;28;19924;-72
2023/01/06 01:04:20;;;;;;;;;;;8.80;99.90;;;;;;5065702;28;19929;-73
2023/01/06 01:06:47;;;;;;;;;;;8.80;99.90;;;;;;5065635;28;19979;-73
2023/01/06 01:09:16;;;;;;;;;;;8.80;99.90;;;;;;5063201;28;20417;-72
2023/01/06 01:14:29;;;;;;;;;;;8.70;99.90;;;;;;5052485;28;19948;-73
2023/01/06 01:16:55;;;;;;;;;;;8.70;99.90;;;;;;5053214;28;19924;-73
2023/01/06 01:19:28;;;;;;;;;;;8.70;99.90;;;;;;5060200;28;19932;-73
2023/01/06 01:21:59;;;;;;;;;;;8.60;99.90;;;;;;5039541;28;20323;-73
2023/01/06 01:24:31;;;;;;;;;;;8.60;99.90;;;;;;5043762;28;19924;-73
2023/01/06 01:27:04;;;;;;;;;;;8.60;99.90;;;;;;5059298;28;19924;-73
2023/01/06 01:29:35;;;;;;;;;;;8.60;99.90;;;;;;5045131;28;19929;-73
2023/01/06 01:32:02;;;;;;;;;;;8.50;99.90;;;;;;5060511;28;19935;-73
2023/01/06 01:34:33;;;;;;;;;;;8.50;99.90;;;;;;5054287;28;19933;-73
2023/01/06 01:37:05;;;;;;;;;;;8.40;99.90;;;;;;5067005;28;19925;-73
2023/01/06 01:39:37;;;;;;;;;;;8.40;99.90;;;;;;5042110;28;19932;-73
2023/01/06 01:42:14;;;;;;;;;;;8.40;99.90;;;;;;5064806;28;19967;-73
2023/01/06 01:44:54;;;;;;;;;;;8.30;99.90;;;;;;5063139;28;19931;-72
2023/01/06 01:47:40;;;;;;;;;;;8.30;99.90;;;;;;5060562;28;20285;-73
2023/01/06 01:50:31;;;;;;;;;;;8.20;99.90;;;;;;5054223;28;19925;-73
2023/01/06 01:53:06;;;;;;;;;;;8.20;99.90;;;;;;5066625;28;19928;-73
2023/01/06 01:55:38;;;;;;;;;;;8.20;99.90;;;;;;5055925;28;20022;-73
2023/01/06 01:58:12;;;;;;;;;;;8.10;99.90;;;;;;5062526;28;20295;-73
2023/01/06 02:00:40;;;;;;;;;;;8.10;99.90;;;;;;5067300;28;19947;-73
2023/01/06 02:03:13;;;;;;;;;;;8.00;99.90;;;;;;5066424;28;19979;-73
2023/01/06 02:05:47;;;;;;;;;;;8.00;99.90;;;;;;5046573;28;20384;-73
2023/01/06 02:08:32;;;;;;;;;;;8.00;99.90;;;;;;5058889;28;19929;-72
2023/01/06 02:11:04;;;;;;;;;;;8.00;99.90;;;;;;5058632;28;20388;-73
2023/01/06 02:13:37;;;;;;;;;;;7.90;99.90;;;;;;5064866;28;20345;-73
2023/01/06 02:16:26;;;;;;;;;;;7.90;99.90;;;;;;5066766;28;19979;-72
2023/01/06 02:19:11;;;;;;;;;;;7.90;99.90;;;;;;5049844;28;20438;-73
2023/01/06 02:21:52;;;;;;;;;;;7.90;99.90;;;;;;5063214;28;19954;-73
2023/01/06 02:24:23;;;;;;;;;;;7.90;99.90;;;;;;5061326;28;20226;-72
2023/01/06 02:26:55;;;;;;;;;;;7.80;99.90;;;;;;5079997;28;19929;-72
2023/01/06 02:29:46;;;;;;;;;;;7.80;99.90;;;;;;5060497;28;19928;-72
2023/01/06 02:32:24;;;;;;;;;;;7.80;99.90;;;;;;5060834;28;19925;-73
2023/01/06 02:35:11;;;;;;;;;;;7.80;99.90;;;;;;5056532;28;19933;-73
2023/01/06 02:37:51;;;;;;;;;;;7.70;99.90;;;;;;5050720;28;19931;-73
2023/01/06 02:40:30;;;;;;;;;;;7.70;99.90;;;;;;5029288;28;19963;-73
2023/01/06 02:43:11;;;;;;;;;;;7.70;99.90;;;;;;5065840;28;20016;-73
2023/01/06 02:45:48;;;;;;;;;;;7.70;99.90;;;;;;5051880;28;19924;-73
2023/01/06 02:48:26;;;;;;;;;;;7.70;99.90;;;;;;5042417;28;20362;-73
2023/01/06 02:51:27;;;;;;;;;;;7.60;99.90;;;;;;5042569;28;19925;-73
2023/01/06 02:54:16;;;;;;;;;;;7.60;99.90;;;;;;5027101;28;20403;-73
2023/01/06 02:56:54;;;;;;;;;;;7.60;99.90;;;;;;5057327;28;19932;-73
2023/01/06 02:59:31;;;;;;;;;;;7.50;99.90;;;;;;5043664;28;19948;-73
2023/01/06 03:02:03;;;;;;;;;;;7.40;99.90;;;;;;5028649;28;19929;-73
2023/01/06 03:04:40;;;;;;;;;;;7.30;99.90;;;;;;5067908;28;20421;-73
2023/01/06 03:07:14;;;;;;;;;;;7.30;99.90;;;;;;5069706;28;19963;-72
2023/01/06 03:09:41;;;;;;;;;;;7.20;99.90;;;;;;5067141;28;20288;-73
2023/01/06 03:12:21;;;;;;;;;;;7.10;99.90;;;;;;5042284;28;20387;-73
2023/01/06 03:14:54;;;;;;;;;;;7.00;99.90;;;;;;5056830;28;20368;-73
2023/01/06 03:17:22;;;;;;;;;;;6.90;99.90;;;;;;5059952;28;19924;-73
2023/01/06 03:19:54;;;;;;;;;;;6.80;99.90;;;;;;5060855;28;19955;-73
2023/01/06 03:22:22;;;;;;;;;;;6.70;99.90;;;;;;5046476;28;19935;-73
2023/01/06 03:24:53;;;;;;;;;;;6.70;99.90;;;;;;5038427;28;20276;-73
2023/01/06 03:27:25;;;;;;;;;;;6.60;99.90;;;;;;5050411;28;19935;-73
2023/01/06 03:29:57;;;;;;;;;;;6.60;99.90;;;;;;5049949;28;19925;-73
2023/01/06 03:32:27;;;;;;;;;;;6.50;99.90;;;;;;5062779;28;19931;-73
2023/01/06 03:35:23;;;;;;;;;;;6.50;99.90;;;;;;5049649;28;19928;-73
2023/01/06 03:37:55;;;;;;;;;;;6.50;99.90;;;;;;5057006;28;19928;-73
2023/01/06 03:40:32;;;;;;;;;;;6.40;99.90;;;;;;5040045;28;19924;-72
2023/01/06 03:43:11;;;;;;;;;;;6.30;99.90;;;;;;5043555;28;19932;-72
2023/01/06 03:45:49;;;;;;;;;;;6.30;99.90;;;;;;5042377;28;19925;-72
2023/01/06 03:48:45;;;;;;;;;;;6.20;99.90;;;;;;5048946;28;20016;-73
2023/01/06 03:51:24;;;;;;;;;;;6.20;99.90;;;;;;5051182;28;19929;-73
2023/01/06 03:53:59;;;;;;;;;;;6.20;99.90;;;;;;5029659;28;20020;-73
2023/01/06 03:56:32;;;;;;;;;;;6.10;99.90;;;;;;5033047;28;20023;-73
2023/01/06 03:59:05;;;;;;;;;;;6.10;99.90;;;;;;5061614;28;19935;-73
2023/01/06 04:01:38;;;;;;;;;;;6.00;99.90;;;;;;5043449;28;19935;-73
2023/01/06 04:04:11;;;;;;;;;;;6.00;99.90;;;;;;5056984;28;19925;-72
2023/01/06 04:06:43;;;;;;;;;;;5.90;99.90;;;;;;5042744;28;19932;-72
2023/01/06 04:09:15;;;;;;;;;;;5.80;99.90;;;;;;5055027;28;20334;-73
2023/01/06 04:14:36;;;;;;;;;;;5.80;99.90;;;;;;5052575;28;19933;-73
2023/01/06 04:17:08;;;;;;;;;;;5.90;99.90;;;;;;5048472;28;19967;-73
2023/01/06 04:19:40;;;;;;;;;;;5.90;99.90;;;;;;5032049;28;19978;-73
2023/01/06 04:22:12;;;;;;;;;;;6.00;99.90;;;;;;5054780;28;20553;-73
2023/01/06 04:24:43;;;;;;;;;;;6.00;99.90;;;;;;5039417;28;19967;-73
2023/01/06 04:27:15;;;;;;;;;;;6.10;99.90;;;;;;5059697;28;19928;-73
2023/01/06 04:29:46;;;;;;;;;;;6.10;99.90;;;;;;5058163;28;19925;-73
2023/01/06 04:32:18;;;;;;;;;;;6.10;99.90;;;;;;5036540;28;19925;-73
2023/01/06 04:34:50;;;;;;;;;;;6.10;99.90;;;;;;5063074;28;19925;-72
2023/01/06 04:37:17;;;;;;;;;;;6.10;99.90;;;;;;5049452;28;19964;-72
2023/01/06 04:39:49;;;;;;;;;;;6.10;99.90;;;;;;5063667;28;19994;-73
2023/01/06 04:42:21;;;;;;;;;;;6.10;99.90;;;;;;5066661;28;19982;-72
2023/01/06 04:44:52;;;;;;;;;;;6.00;99.90;;;;;;5065485;28;19929;-72
2023/01/06 04:47:24;;;;;;;;;;;6.00;99.90;;;;;;5058826;28;20413;-73
2023/01/06 04:49:50;;;;;;;;;;;6.00;99.90;;;;;;5057991;28;19925;-73
2023/01/06 04:52:17;;;;;;;;;;;6.00;99.90;;;;;;5060897;28;19932;-73
2023/01/06 04:54:43;;;;;;;;;;;5.90;99.90;;;;;;5062931;28;19928;-73
2023/01/06 04:57:10;;;;;;;;;;;5.90;99.90;;;;;;5047265;28;19925;-73
2023/01/06 04:59:41;;;;;;;;;;;5.90;99.90;;;;;;5065529;28;20426;-72
2023/01/06 05:02:08;;;;;;;;;;;5.90;99.90;;;;;;5050041;28;20338;-72
2023/01/06 05:04:40;;;;;;;;;;;5.90;99.90;;;;;;5051547;28;20307;-73
2023/01/06 05:07:11;;;;;;;;;;;5.80;99.90;;;;;;5052442;28;19924;-73
2023/01/06 05:09:38;;;;;;;;;;;5.80;99.90;;;;;;5054243;28;19928;-73
2023/01/06 05:12:09;;;;;;;;;;;5.70;99.90;;;;;;5059579;28;19947;-73
2023/01/06 05:14:36;;;;;;;;;;;5.70;99.90;;;;;;5059761;28;19987;-73
2023/01/06 05:17:02;;;;;;;;;;;5.70;99.90;;;;;;5056154;28;19932;-72
2023/01/06 05:19:34;;;;;;;;;;;5.60;99.90;;;;;;5054998;28;19929;-72
2023/01/06 05:22:06;;;;;;;;;;;5.60;99.90;;;;;;5051879;28;20298;-73
2023/01/06 05:24:37;;;;;;;;;;;5.50;99.90;;;;;;5061529;28;19925;-72
2023/01/06 05:27:09;;;;;;;;;;;5.50;99.90;;;;;;5060552;28;19925;-73
2023/01/06 05:29:35;;;;;;;;;;;5.50;99.90;;;;;;5037218;28;20379;-72
2023/01/06 05:32:07;;;;;;;;;;;5.40;99.90;;;;;;5054700;28;19947;-72
2023/01/06 05:34:38;;;;;;;;;;;5.50;99.90;;;;;;5064977;28;20372;-73
2023/01/06 05:37:10;;;;;;;;;;;5.50;99.90;;;;;;5059695;28;19932;-73
2023/01/06 05:39:37;;;;;;;;;;;5.50;99.90;;;;;;5060440;28;19968;-73
2023/01/06 05:42:08;;;;;;;;;;;5.60;99.90;;;;;;5053592;28;19925;-72
2023/01/06 05:44:35;;;;;;;;;;;5.60;99.90;;;;;;5052883;28;19925;-73
2023/01/06 05:47:06;;;;;;;;;;;5.60;99.90;;;;;;5040823;28;19983;-73
2023/01/06 05:49:38;;;;;;;;;;;5.50;99.90;;;;;;5063129;28;19925;-73
2023/01/06 05:52:04;;;;;;;;;;;5.40;99.90;;;;;;5052225;28;20372;-72
2023/01/06 05:54:36;;;;;;;;;;;5.40;99.90;;;;;;5054099;28;19948;-73
2023/01/06 05:57:08;;;;;;;;;;;5.30;99.90;;;;;;5058776;28;19924;-73
2023/01/06 05:59:40;;;;;;;;;;;5.30;99.90;;;;;;5051677;28;19928;-73
2023/01/06 06:02:12;;;;;;;;;;;5.30;99.90;;;;;;5060741;28;20372;-73
2023/01/06 06:04:45;;;;;;;;;;;5.20;99.90;;;;;;5061299;28;19929;-73
2023/01/06 06:07:11;;;;;;;;;;;5.20;99.90;;;;;;5063605;28;19932;-72
2023/01/06 06:09:43;;;;;;;;;;;5.20;99.90;;;;;;5049493;28;19981;-73
2023/01/06 06:12:14;;;;;;;;;;;5.20;99.90;;;;;;5048810;28;19978;-73
2023/01/06 06:14:46;;;;;;;;;;;5.20;99.90;;;;;;5062670;28;19928;-73
2023/01/06 06:17:18;;;;;;;;;;;5.20;99.90;;;;;;5061931;28;20657;-74
2023/01/06 06:19:44;;;;;;;;;;;5.20;99.90;;;;;;5039340;28;19933;-73
2023/01/06 06:22:16;;;;;;;;;;;5.10;99.90;;;;;;5060907;28;19936;-73
2023/01/06 06:24:47;;;;;;;;;;;5.20;99.90;;;;;;5060886;28;19925;-72
2023/01/06 06:27:19;;;;;;;;;;;5.10;99.90;;;;;;5064739;28;19970;-72
2023/01/06 06:29:50;;;;;;;;;;;5.10;99.90;;;;;;5052644;28;20441;-72
2023/01/06 06:32:22;;;;;;;;;;;5.10;99.90;;;;;;5053593;28;19982;-72
2023/01/06 06:34:53;;;;;;;;;;;5.10;99.90;;;;;;5070209;28;19924;-72
2023/01/06 06:37:25;;;;;;;;;;;5.10;99.90;;;;;;5069426;28;19979;-72
2023/01/06 06:39:57;;;;;;;;;;;5.20;99.90;;;;;;5066690;28;19929;-72
2023/01/06 06:42:28;;;;;;;;;;;5.20;99.90;;;;;;5037195;28;19925;-72
2023/01/06 06:45:00;;;;;;;;;;;5.20;99.90;;;;;;5058248;28;20346;-72
2023/01/06 06:47:31;;;;;;;;;;;5.20;99.90;;;;;;5060561;28;19955;-72
2023/01/06 06:49:58;;;;;;;;;;;5.20;99.90;;;;;;5040525;28;19947;-72
2023/01/06 06:52:29;;;;;;;;;;;5.20;99.90;;;;;;5065610;28;19924;-72
2023/01/06 06:55:01;;;;;;;;;;;5.20;99.90;;;;;;5060842;28;19978;-72
2023/01/06 06:57:32;;;;;;;;;;;5.20;99.90;;;;;;5051500;28;19925;-72
2023/01/06 07:00:04;;;;;;;;;;;5.20;99.90;;;;;;5053827;28;19936;-72
2023/01/06 07:02:36;;;;;;;;;;;5.20;99.90;;;;;;5056505;28;19991;-72
2023/01/06 07:05:08;;;;;;;;;;;5.20;99.90;;;;;;5056450;28;19971;-72
2023/01/06 07:07:36;;;;;;;;;;;5.20;99.90;;;;;;5048017;28;20304;-72
2023/01/06 07:10:05;;;;;;;;;;;5.20;99.90;;;;;;5041823;28;19928;-72
2023/01/06 07:12:33;;;;;;;;;;;5.20;99.90;;;;;;5046742;28;20302;-72
2023/01/06 07:15:01;;;;;;;;;;;5.30;99.90;;;;;;5062258;28;20036;-73
2023/01/06 07:17:29;;;;;;;;;;;5.30;99.90;;;;;;5046036;28;19959;-72
2023/01/06 07:19:57;;;;;;;;;;;5.20;99.90;;;;;;5056443;28;19928;-71
2023/01/06 07:22:27;;;;;;;;;;;5.30;99.90;;;;;;5044023;28;20403;-73
2023/01/06 07:24:55;;;;;;;;;;;5.30;99.90;;;;;;5041877;28;20408;-71
2023/01/06 07:27:24;;;;;;;;;;;5.30;99.90;;;;;;5049733;28;19947;-71
2023/01/06 07:29:53;;;;;;;;;;;5.30;99.90;;;;;;5059424;28;20012;-71
2023/01/06 07:32:26;;;;;;;;;;;5.30;99.90;;;;;;5065813;28;20359;-72
2023/01/06 07:34:56;;;;;;;;;;;5.30;99.90;;;;;;5035074;28;19929;-71
2023/01/06 07:37:26;;;;;;;;;;;5.30;99.90;;;;;;5059372;28;19931;-72
2023/01/06 07:39:54;;;;;;;;;;;5.30;99.90;;;;;;5060375;28;19959;-71
2023/01/06 07:42:27;;;;;;;;;;;5.30;99.90;;;;;;5050685;28;19935;-72
2023/01/06 07:45:01;;;;;;;;;;;5.30;99.90;;;;;;5041528;28;19929;-72
2023/01/06 07:47:30;;;;;;;;;;;5.40;99.90;;;;;;5035271;28;19931;-72
2023/01/06 07:50:01;;;;;;;;;;;5.30;99.90;;;;;;5028922;28;20326;-72
2023/01/06 07:52:32;;;;;;;;;;;5.20;99.90;;;;;;5054992;28;20281;-72
2023/01/06 07:55:01;;;;;;;;;;;5.10;99.90;;;;;;5043383;28;19928;-72
2023/01/06 07:57:33;;;;;;;;;;;5.10;99.90;;;;;;5058156;28;19929;-72
2023/01/06 08:00:05;;;;;;;;;;;5.00;99.90;;;;;;5047312;28;19925;-74
2023/01/06 08:02:37;;;;;;;;;;;5.00;99.90;;;;;;5054075;28;19925;-73
2023/01/06 08:05:10;;;;;;;;;;;4.90;99.90;;;;;;5051278;28;19928;-73
2023/01/06 08:07:40;;;;;;;;;;;4.90;99.90;;;;;;5048365;28;20538;-72
2023/01/06 08:10:11;;;;;;;;;;;4.80;99.90;;;;;;5041578;28;19931;-72
2023/01/06 08:12:41;;;;;;;;;;;4.90;99.90;;;;;;5055587;28;20011;-72
2023/01/06 08:15:12;;;;;;;;;;;4.90;99.90;;;;;;5033956;28;19948;-72
2023/01/06 08:17:41;;;;;;;;;;;4.90;99.90;;;;;;5035027;28;19931;-72
2023/01/06 08:20:14;;;;;;;;;;;5.00;99.90;;;;;;5053782;28;20437;-73
2023/01/06 08:22:44;;;;;;;;;;;5.10;99.90;;;;;;5035995;28;19979;-72
2023/01/06 08:25:22;;;;;;;;;;;5.10;99.90;;;;;;5043187;28;19928;-73
2023/01/06 08:27:52;;;;;;;;;;;5.10;99.90;;;;;;5046179;28;19929;-72
2023/01/06 08:30:24;;;;;;;;;;;5.10;99.90;;;;;;5018100;28;19932;-75
2023/01/06 08:32:58;;;;;;;;;;;5.10;99.90;;;;;;5066370;28;19979;-75
2023/01/06 08:35:29;;;;;;;;;;;5.10;99.90;;;;;;5062682;28;20443;-73
2023/01/06 08:37:58;;;;;;;;;;;5.10;99.90;;;;;;5036944;28;20346;-72
2023/01/06 08:40:26;;;;;;;;;;;5.10;99.90;;;;;;5047160;28;19934;-72
2023/01/06 08:43:03;;;;;;;;;;;5.10;99.90;;;;;;5057485;28;20000;-72
2023/01/06 08:46:04;;;;;;;;;;;5.20;99.90;;;;;;5051158;28;19935;-73
2023/01/06 08:48:34;;;;;;;;;;;5.20;99.90;;;;;;5038156;28;19965;-72
2023/01/06 08:51:07;;;;;;;;;;;5.30;99.90;;;;;;5044344;28;20401;-72
2023/01/06 08:53:36;;;;;;;;;;;5.30;99.90;;;;;;5029450;28;19976;-73
2023/01/06 08:56:10;;;;;;;;;;;5.30;99.90;;;;;;5038757;28;19979;-73
2023/01/06 08:58:42;;;;;;;;;;;5.40;99.90;;;;;;5054735;28;20194;-72
2023/01/06 09:01:19;;;;;;;;;;;5.40;99.90;;;;;;5055069;28;20402;-73
2023/01/06 09:03:48;;;;;;;;;;;5.50;99.90;;;;;;5057740;28;20368;-72
2023/01/06 09:06:18;;;;;;;;;;;5.50;99.90;;;;;;5039954;28;20023;-72
2023/01/06 09:08:48;;;;;;;;;;;5.80;99.90;;;;;;5059864;28;20142;-72
2023/01/06 09:11:17;;;;;;;;;;;6.00;99.90;;;;;;5029153;28;20031;-73
2023/01/06 09:13:46;;;;;;;;;;;6.20;99.90;;;;;;5029060;28;19931;-72
2023/01/06 09:16:15;;;;;;;;;;;6.40;99.90;;;;;;5043395;28;20347;-72
2023/01/06 09:18:48;;;;;;;;;;;6.50;99.90;;;;;;5047584;28;19980;-73
2023/01/06 09:21:20;;;;;;;;;;;6.60;99.90;;;;;;5052479;28;19929;-72
2023/01/06 09:23:50;;;;;;;;;;;6.60;99.90;;;;;;5039381;28;19929;-72
2023/01/06 09:26:22;;;;;;;;;;;6.70;99.90;;;;;;5054234;28;19928;-73
2023/01/06 09:28:51;;;;;;;;;;;6.70;99.90;;;;;;5027054;28;20542;-73
2023/01/06 09:31:20;;;;;;;;;;;6.70;99.90;;;;;;5037519;28;20552;-71
2023/01/06 09:33:49;;;;;;;;;;;6.80;99.90;;;;;;5037429;28;20419;-72
2023/01/06 09:36:18;;;;;;;;;;;6.80;99.90;;;;;;5040919;28;19969;-72
2023/01/06 09:38:47;;;;;;;;;;;6.80;99.90;;;;;;5043162;28;19932;-73
2023/01/06 09:41:25;;;;;;;;;;;6.70;99.90;;;;;;5035963;28;19931;-72
2023/01/06 09:44:17;;;;;;;;;;;6.70;99.90;;;;;;5055072;28;19929;-72
2023/01/06 09:46:50;;;;;;;;;;;6.70;99.90;;;;;;5060948;28;20373;-72
2023/01/06 09:49:27;;;;;;;;;;;6.60;99.90;;;;;;5034366;28;19931;-74
2023/01/06 09:52:00;;;;;;;;;;;6.60;99.90;;;;;;5057990;28;19929;-72
2023/01/06 09:54:34;;;;;;;;;;;6.40;99.90;;;;;;5047618;28;19981;-72
2023/01/06 09:57:32;;;;;;;;;;;6.40;99.90;;;;;;5058089;28;19924;-71
2023/01/06 10:00:05;;;;;;;;;;;6.40;99.90;;;;;;5024931;28;20306;-73
2023/01/06 10:02:41;;;;;;;;;;;6.40;99.90;;;;;;5059792;28;19940;-72
2023/01/06 10:05:20;;;;;;;;;;;6.40;99.90;;;;;;5045521;28;19932;-72
2023/01/06 10:08:10;;;;;;;;;;;6.30;99.90;;;;;;5054822;28;20341;-72
2023/01/06 10:10:49;;;;;;;;;;;6.30;99.90;;;;;;5036369;28;19935;-72
2023/01/06 10:13:30;;;;;;;;;;;6.40;99.90;;;;;;5053847;28;20299;-72
2023/01/06 10:16:19;;;;;;;;;;;6.50;99.90;;;;;;5057893;28;19932;-73
2023/01/06 10:18:50;;;;;;;;;;;6.50;99.90;;;;;;5049908;28;19924;-72
2023/01/06 10:21:30;;;;;;;;;;;6.60;99.90;;;;;;5057221;28;20313;-71
2023/01/06 10:24:02;;;;;;;;;;;6.50;99.90;;;;;;5044905;28;20337;-72
2023/01/06 10:26:38;;;;;;;;;;;6.60;99.90;;;;;;5064320;28;20007;-71
2023/01/06 10:29:15;;;;;;;;;;;6.60;99.90;;;;;;5042956;28;20337;-71
2023/01/06 10:31:49;;;;;;;;;;;6.60;99.90;;;;;;5052714;28;20350;-72
2023/01/06 10:34:23;;;;;;;;;;;6.70;99.90;;;;;;5040453;28;19932;-72
2023/01/06 10:37:12;;;;;;;;;;;6.70;99.90;;;;;;5052294;28;19956;-71
2023/01/06 10:39:47;;;;;;;;;;;6.80;99.90;;;;;;5055759;28;20327;-72
2023/01/06 10:45:12;;;;;;;;;;;6.90;99.90;;;;;;5053960;28;19929;-72
2023/01/06 10:47:41;;;;;;;;;;;7.00;99.90;;;;;;5040142;28;19925;-72
2023/01/06 10:50:14;;;;;;;;;;;7.00;99.90;;;;;;5037685;28;20127;-74
2023/01/06 10:52:45;;;;;;;;;;;7.10;99.90;;;;;;5055463;28;20010;-72
2023/01/06 10:55:18;;;;;;;;;;;7.20;99.90;;;;;;5063414;28;20342;-72
2023/01/06 10:57:50;;;;;;;;;;;7.30;99.90;;;;;;5051011;28;19981;-72
2023/01/06 11:00:21;;;;;;;;;;;7.30;99.90;;;;;;5056921;28;19925;-71
2023/01/06 11:02:51;;;;;;;;;;;7.40;99.90;;;;;;5039506;28;19931;-72
2023/01/06 11:05:25;;;;;;;;;;;7.50;99.90;;;;;;5051712;28;19953;-72
2023/01/06 11:07:56;;;;;;;;;;;7.50;99.90;;;;;;5052220;28;20272;-72
2023/01/06 11:10:28;;;;;;;;;;;7.60;99.90;;;;;;5065322;28;19935;-73
2023/01/06 11:12:58;;;;;;;;;;;7.60;99.90;;;;;;5048231;28;19966;-72
2023/01/06 11:15:39;;;;;;;;;;;7.60;99.90;;;;;;5061346;28;19990;-72
2023/01/06 11:18:18;;;;;;;;;;;7.70;99.90;;;;;;5040404;28;20366;-72
2023/01/06 11:21:05;;;;;;;;;;;7.70;99.90;;;;;;5057485;28;20342;-72
2023/01/06 11:23:36;;;;;;;;;;;7.90;99.90;;;;;;5046232;28;19935;-72
2023/01/06 11:26:26;;;;;;;;;;;8.00;99.90;;;;;;5035786;28;20314;-74
2023/01/06 11:28:56;;;;;;;;;;;8.10;99.90;;;;;;5042273;28;20031;-72
2023/01/06 11:31:25;;;;;;;;;;;8.20;99.90;;;;;;5059107;28;19924;-72
2023/01/06 11:34:02;;;;;;;;;;;8.20;99.90;;;;;;5040573;28;20182;-72
2023/01/06 11:36:45;;;;;;;;;;;8.20;99.90;;;;;;5050961;28;19925;-72
2023/01/06 11:39:34;;;;;;;;;;;8.30;99.90;;;;;;5055471;28;19932;-72
2023/01/06 11:42:09;;;;;;;;;;;8.40;99.90;;;;;;5051436;28;19925;-73
2023/01/06 11:44:40;;;;;;;;;;;8.60;99.90;;;;;;5046998;28;19925;-72
2023/01/06 11:47:21;;;;;;;;;;;8.70;99.90;;;;;;5061594;28;19954;-72
2023/01/06 11:49:53;;;;;;;;;;;8.80;99.90;;;;;;5024448;28;20332;-72
2023/01/06 11:52:26;;;;;;;;;;;9.00;99.90;;;;;;5054959;28;19928;-72
2023/01/06 11:55:00;;;;;;;;;;;9.10;99.90;;;;;;5040613;28;20342;-72
2023/01/06 11:58:08;;;;;;;;;;;9.20;99.90;;;;;;5054020;28;20284;-73
2023/01/06 12:00:54;;;;;;;;;;;9.30;99.90;;;;;;5036254;28;19929;-73
2023/01/06 12:03:40;;;;;;;;;;;9.20;99.90;;;;;;5042176;28;19928;-71
2023/01/06 12:06:32;;;;;;;;;;;9.10;99.90;;;;;;5059627;28;19932;-72
2023/01/06 12:09:08;;;;;;;;;;;9.00;99.90;;;;;;5057409;28;20682;-72
2023/01/06 12:11:46;;;;;;;;;;;8.90;99.90;;;;;;5058814;28;19978;-72
2023/01/06 12:14:21;;;;;;;;;;;8.80;99.90;;;;;;5056100;28;19929;-73
2023/01/06 12:17:01;;;;;;;;;;;8.70;99.90;;;;;;5041101;28;19929;-72
2023/01/06 12:19:38;;;;;;;;;;;8.70;99.90;;;;;;5062654;28;19932;-72
2023/01/06 12:22:17;;;;;;;;;;;8.70;99.90;;;;;;5050859;28;20019;-73
2023/01/06 12:24:47;;;;;;;;;;;8.70;99.90;;;;;;5059358;28;20680;-72
2023/01/06 12:27:21;;;;;;;;;;;8.70;99.90;;;;;;5048552;28;20333;-73
2023/01/06 12:29:50;;;;;;;;;;;8.80;99.90;;;;;;5040065;28;20039;-74
2023/01/06 12:32:22;;;;;;;;;;;8.90;99.90;;;;;;5047584;28;20338;-72
2023/01/06 12:35:17;;;;;;;;;;;9.00;99.90;;;;;;5040388;28;19931;-72
2023/01/06 12:37:47;;;;;;;;;;;9.20;99.90;;;;;;5039745;28;20386;-72
2023/01/06 12:40:28;;;;;;;;;;;9.30;99.90;;;;;;5051684;28;19955;-73
2023/01/06 12:43:00;;;;;;;;;;;9.30;99.90;;;;;;5039455;28;19925;-72
2023/01/06 12:45:31;;;;;;;;;;;9.30;99.90;;;;;;5037531;28;19933;-72
2023/01/06 12:48:05;;;;;;;;;;;9.30;99.90;;;;;;5049781;28;20379;-72
2023/01/06 12:51:10;;;;;;;;;;;9.40;99.90;;;;;;5055193;28;20148;-72
2023/01/06 12:54:04;;;;;;;;;;;9.40;99.90;;;;;;5061372;28;20367;-72
2023/01/06 12:56:40;;;;;;;;;;;9.40;99.90;;;;;;5061602;28;20387;-72
2023/01/06 12:59:33;;;;;;;;;;;9.30;99.90;;;;;;5024364;28;19935;-72
2023/01/06 13:02:21;;;;;;;;;;;9.30;99.90;;;;;;5049967;28;20387;-72
2023/01/06 13:05:08;;;;;;;;;;;9.30;99.90;;;;;;5063996;28;20425;-72
2023/01/06 13:07:56;;;;;;;;;;;9.20;99.90;;;;;;5059222;28;19924;-72
2023/01/06 13:10:26;;;;;;;;;;;9.20;99.90;;;;;;5039117;28;20546;-73
2023/01/06 13:13:03;;;;;;;;;;;9.20;99.90;;;;;;5048523;28;19928;-73
2023/01/06 13:15:35;;;;;;;;;;;9.20;99.90;;;;;;5054054;28;19931;-72
2023/01/06 13:18:20;;;;;;;;;;;9.10;99.90;;;;;;5023507;28;19956;-72
2023/01/06 13:21:02;;;;;;;;;;;9.10;99.90;;;;;;5054711;28;19951;-72
2023/01/06 13:23:45;;;;;;;;;;;9.10;99.90;;;;;;5047917;28;20652;-72
2023/01/06 13:26:14;;;;;;;;;;;9.10;99.90;;;;;;5062911;28;19925;-71
2023/01/06 13:29:03;;;;;;;;;;;9.10;99.90;;;;;;5042603;28;19932;-73
2023/01/06 13:31:51;;;;;;;;;;;9.10;99.90;;;;;;5055245;28;20936;-72
2023/01/06 13:34:33;;;;;;;;;;;9.10;99.90;;;;;;5029020;28;19955;-74
2023/01/06 13:37:15;;;;;;;;;;;9.10;99.90;;;;;;5042442;28;19932;-72
2023/01/06 13:39:55;;;;;;;;;;;9.10;99.90;;;;;;5059574;28;19928;-73
2023/01/06 13:42:36;;;;;;;;;;;9.10;99.90;;;;;;5057758;28;19928;-72
2023/01/06 13:45:07;;;;;;;;;;;9.20;99.90;;;;;;5039515;28;19928;-72
2023/01/06 13:47:36;;;;;;;;;;;9.10;99.90;;;;;;5046264;28;20470;-74
2023/01/06 13:50:06;;;;;;;;;;;9.20;99.90;;;;;;5047783;28;20398;-73
2023/01/06 13:52:35;;;;;;;;;;;9.20;99.90;;;;;;5050956;28;19977;-72
2023/01/06 13:55:28;;;;;;;;;;;9.20;99.90;;;;;;5042561;28;19940;-73
2023/01/06 13:58:16;;;;;;;;;;;9.20;99.90;;;;;;5042551;28;19926;-71
2023/01/06 14:01:04;;;;;;;;;;;9.20;99.90;;;;;;5060571;28;19970;-72
2023/01/06 14:03:41;;;;;;;;;;;9.20;99.90;;;;;;5046225;28;19924;-72
2023/01/06 14:06:11;;;;;;;;;;;9.20;99.90;;;;;;5057272;28;19966;-73
2023/01/06 14:08:47;;;;;;;;;;;9.30;99.90;;;;;;5049423;28;19928;-73
2023/01/06 14:11:30;;;;;;;;;;;9.30;99.90;;;;;;5044365;28;19925;-72
2023/01/06 14:14:06;;;;;;;;;;;9.30;99.90;;;;;;5072369;28;19956;-72
2023/01/06 14:16:48;;;;;;;;;;;9.30;99.90;;;;;;5054224;28;19971;-74
2023/01/06 14:19:29;;;;;;;;;;;9.30;99.90;;;;;;5068396;28;19925;-73
2023/01/06 14:22:14;;;;;;;;;;;9.30;99.90;;;;;;5061506;28;19974;-72
2023/01/06 14:24:48;;;;;;;;;;;9.30;99.90;;;;;;5045606;28;20397;-72
2023/01/06 14:27:36;;;;;;;;;;;9.30;99.90;;;;;;5041149;28;19924;-72
2023/01/06 14:30:31;;;;;;;;;;;9.30;99.90;;;;;;5040704;28;20018;-72
2023/01/06 14:33:04;;;;;;;;;;;9.20;99.90;;;;;;5060141;28;19925;-73
2023/01/06 14:35:42;;;;;;;;;;;9.20;99.90;;;;;;5059171;28;19934;-72
2023/01/06 14:38:19;;;;;;;;;;;9.20;99.90;;;;;;5043220;28;20391;-72
2023/01/06 14:40:51;;;;;;;;;;;9.20;99.90;;;;;;5055117;28;19929;-72
2023/01/06 14:43:26;;;;;;;;;;;9.20;99.90;;;;;;5037434;28;19936;-71
2023/01/06 14:45:56;;;;;;;;;;;9.20;99.90;;;;;;5060608;28;20384;-74
2023/01/06 14:48:27;;;;;;;;;;;9.20;99.90;;;;;;5062325;28;19925;-71
2023/01/06 14:50:57;;;;;;;;;;;9.10;99.90;;;;;;5039753;28;20494;-72
2023/01/06 14:53:37;;;;;;;;;;;9.10;99.90;;;;;;5062892;28;20427;-72
2023/01/06 14:56:11;;;;;;;;;;;9.00;99.90;;;;;;5036048;28;19955;-73
2023/01/06 14:58:41;;;;;;;;;;;9.00;99.90;;;;;;5053766;28;20384;-72
2023/01/06 15:01:29;;;;;;;;;;;9.00;99.90;;;;;;5049758;28;20012;-72
2023/01/06 15:04:00;;;;;;;;;;;9.00;99.90;;;;;;5035829;28;20379;-73
2023/01/06 15:06:39;;;;;;;;;;;9.00;99.90;;;;;;5036153;28;19935;-72
2023/01/06 15:09:19;;;;;;;;;;;9.00;99.90;;;;;;5042068;28;19974;-71
2023/01/06 15:11:51;;;;;;;;;;;8.90;99.90;;;;;;5060735;28;20422;-72
2023/01/06 15:14:25;;;;;;;;;;;8.90;99.90;;;;;;5028907;28;19929;-71
2023/01/06 15:17:00;;;;;;;;;;;8.90;99.90;;;;;;5043395;28;20284;-71
2023/01/06 15:19:31;;;;;;;;;;;8.80;99.90;;;;;;5036400;28;19933;-73
2023/01/06 15:22:00;;;;;;;;;;;8.80;99.90;;;;;;5053857;28;19924;-71
2023/01/06 15:24:34;;;;;;;;;;;8.80;99.90;;;;;;5047115;28;19931;-71